Time;durP1;ratioP1;P1;durP2;ratioP2;P2;SDS_P1;SDS_P2;PMS_P1;PMS_P2;Temp;Humidity;BMP_temperature;BMP_pressure;BME280_temperature;BME280_humidity;BME280_pressure;Samples;Min_cycle;Max_cycle;Signal;HPM_P1;HPM_P2
2023/09/10 00:01:07;;;;;;;11.43;6.25;;;;;;;18.64;70.91;98429.56;4411180;32;20075;-79
2023/09/10 00:03:34;;;;;;;11.98;6.28;;;;;;;18.85;70.71;98424.63;4411791;32;20155;-79
2023/09/10 00:06:03;;;;;;;14.25;6.45;;;;;;;18.87;71.28;98421.91;4412812;32;20125;-79
2023/09/10 00:08:30;;;;;;;11.98;6.07;;;;;;;18.62;71.27;98425.38;4413708;32;20059;-79
2023/09/10 00:10:58;;;;;;;12.00;6.55;;;;;;;18.49;71.06;98425.38;4413839;32;20750;-79
2023/09/10 00:13:25;;;;;;;13.73;5.95;;;;;;;18.57;70.43;98427.44;4412920;32;20089;-80
2023/09/10 00:15:53;;;;;;;12.10;6.07;;;;;;;18.46;71.18;98430.81;4399383;32;20114;-79
2023/09/10 00:18:20;;;;;;;12.70;6.22;;;;;;;18.32;72.23;98416.09;4412743;32;20082;-79
2023/09/10 00:20:50;;;;;;;12.57;6.30;;;;;;;18.62;70.77;98433.22;4412952;32;20180;-79
2023/09/10 00:23:17;;;;;;;13.60;6.50;;;;;;;18.48;71.44;98426.31;4399954;32;20153;-80
2023/09/10 00:25:45;;;;;;;12.85;6.45;;;;;;;18.39;71.92;98427.78;4399871;32;20133;-79
2023/09/10 00:28:12;;;;;;;14.87;7.30;;;;;;;18.67;70.84;98421.50;4413458;32;20169;-79
2023/09/10 00:30:39;;;;;;;13.30;6.50;;;;;;;18.62;71.70;98431.44;4413631;32;20086;-79
2023/09/10 00:33:05;;;;;;;14.35;6.62;;;;;;;18.48;72.39;98426.31;4413937;32;20118;-79
2023/09/10 00:35:33;;;;;;;14.77;7.03;;;;;;;18.57;72.46;98430.91;4413432;32;20105;-79
2023/09/10 00:37:59;;;;;;;13.43;7.22;;;;;;;18.28;73.86;98425.06;4413407;32;20468;-79
2023/09/10 00:40:28;;;;;;;13.85;6.15;;;;;;;18.32;73.46;98423.09;4400301;32;20153;-80
2023/09/10 00:42:55;;;;;;;13.13;6.93;;;;;;;18.32;74.71;98412.62;4413291;32;20441;-80
2023/09/10 00:45:23;;;;;;;13.15;6.70;;;;;;;18.11;75.88;98414.94;4413815;32;20102;-79
2023/09/10 00:47:50;;;;;;;13.35;6.72;;;;;;;18.70;73.36;98421.28;4413399;32;20100;-79
2023/09/10 00:50:17;;;;;;;12.65;6.10;;;;;;;18.63;73.83;98422.66;4412922;32;20082;-79
2023/09/10 00:52:50;;;;;;;13.82;6.78;;;;;;;18.50;74.70;98420.06;4413502;32;20140;-79
2023/09/10 00:55:21;;;;;;;11.82;6.30;;;;;;;18.63;73.12;98425.25;4413187;32;20141;-79
2023/09/10 00:57:48;;;;;;;12.75;6.97;;;;;;;18.36;73.99;98420.16;4413259;32;20102;-79
2023/09/10 01:00:16;;;;;;;14.27;6.50;;;;;;;18.71;71.72;98427.34;4413166;32;20074;-79
2023/09/10 01:02:45;;;;;;;12.32;6.85;;;;;;;18.36;73.77;98425.38;4412798;32;20101;-79
2023/09/10 01:05:16;;;;;;;13.65;7.18;;;;;;;17.98;75.45;98427.16;4399376;32;20106;-79
2023/09/10 01:07:43;;;;;;;14.20;6.82;;;;;;;18.05;75.47;98420.56;4413069;32;20105;-79
2023/09/10 01:10:10;;;;;;;14.23;6.60;;;;;;;18.45;74.09;98431.75;4398938;32;20082;-79
2023/09/10 01:12:48;;;;;;;13.62;6.95;;;;;;;18.45;74.39;98429.13;4413172;32;20464;-79
2023/09/10 01:15:15;;;;;;;13.77;7.25;;;;;;;18.04;76.10;98424.94;4413033;32;20070;-80
2023/09/10 01:17:48;;;;;;;13.85;7.20;;;;;;;18.47;74.23;98427.25;4407713;32;145150;-79
2023/09/10 01:20:21;;;;;;;11.70;6.15;;;;;;;18.48;74.70;98434.16;4412967;32;20558;-79
2023/09/10 01:23:15;;;;;;;13.02;6.10;;;;;;;18.47;74.52;98432.47;4413193;32;20133;-79
2023/09/10 01:25:42;;;;;;;12.93;6.90;;;;;;;18.46;74.69;98430.81;4398239;32;20165;-80
2023/09/10 01:28:09;;;;;;;12.73;6.87;;;;;;;18.36;75.67;98425.38;4399598;32;20479;-79
2023/09/10 01:30:37;;;;;;;13.38;6.80;;;;;;;18.65;73.41;98427.78;4412671;32;20098;-79
2023/09/10 01:33:35;;;;;;;12.15;6.18;;;;;;;18.71;71.95;98424.75;4399557;32;20377;-79
2023/09/10 01:36:09;;;;;;;11.90;6.70;;;;;;;18.44;72.74;98433.53;4398865;32;20070;-79
2023/09/10 01:38:41;;;;;;;14.90;6.65;;;;;;;17.77;75.06;98427.62;4399452;32;20106;-79
2023/09/10 01:41:17;;;;;;;12.27;6.43;;;;;;;17.88;74.67;98425.16;4399231;32;20125;-79
2023/09/10 01:43:45;;;;;;;11.93;6.35;;;;;;;18.27;72.88;98425.16;4399174;32;20112;-79
2023/09/10 01:46:12;;;;;;;12.55;6.65;;;;;;;18.26;72.72;98424.31;4398823;32;20078;-79
2023/09/10 01:48:40;;;;;;;11.95;6.30;;;;;;;18.28;72.44;98421.59;4412564;32;20094;-79
2023/09/10 01:51:07;;;;;;;13.07;6.32;;;;;;;18.38;71.16;98423.50;4412579;32;20173;-79
2023/09/10 01:53:34;;;;;;;12.88;6.22;;;;;;;17.85;73.03;98421.88;4412534;32;20180;-79
2023/09/10 01:56:01;;;;;;;13.65;6.37;;;;;;;18.03;72.06;98412.81;4412874;32;20105;-79
2023/09/10 01:58:28;;;;;;;14.93;6.30;;;;;;;17.69;72.95;98419.47;4412754;32;20455;-79
2023/09/10 02:00:55;;;;;;;13.10;6.47;;;;;;;17.69;73.32;98422.06;4412842;32;20472;-79
2023/09/10 02:03:22;;;;;;;12.65;6.90;;;;;;;17.76;72.93;98422.50;4412605;32;20062;-79
2023/09/10 02:05:49;;;;;;;12.88;6.50;;;;;;;17.85;72.77;98427.94;4412009;32;20098;-79
2023/09/10 02:08:16;;;;;;;13.70;7.07;;;;;;;18.19;71.32;98426.53;4412747;32;20100;-79
2023/09/10 02:10:43;;;;;;;13.35;6.47;;;;;;;18.17;71.24;98427.56;4412653;32;20408;-79
2023/09/10 02:13:10;;;;;;;15.52;6.75;;;;;;;17.61;73.97;98432.13;4412614;32;20109;-79
2023/09/10 02:15:39;;;;;;;14.07;6.57;;;;;;;17.51;74.87;98431.91;4412771;32;20116;-79
2023/09/10 02:18:06;;;;;;;13.55;7.07;;;;;;;17.93;72.88;98427.44;4399514;32;20103;-79
2023/09/10 02:20:36;;;;;;;13.68;6.30;;;;;;;17.76;73.88;98422.50;4412710;32;20081;-79
2023/09/10 02:23:03;;;;;;;12.73;6.75;;;;;;;17.53;74.85;98423.97;4412576;32;20162;-79
2023/09/10 02:25:32;;;;;;;18.40;7.62;;;;;;;17.30;76.53;98422.84;4412609;32;20108;-79
2023/09/10 02:28:01;;;;;;;13.18;6.80;;;;;;;17.60;75.00;98425.25;4398499;32;20062;-79
2023/09/10 02:30:28;;;;;;;14.93;6.35;;;;;;;17.40;75.69;98436.97;4399144;32;20074;-79
2023/09/10 02:32:55;;;;;;;14.50;6.75;;;;;;;17.64;75.28;98426.69;4413058;32;20442;-79
2023/09/10 02:35:23;;;;;;;11.05;6.00;;;;;;;17.49;75.71;98430.31;4412674;32;20062;-79
2023/09/10 02:37:50;;;;;;;14.23;7.15;;;;;;;17.49;76.34;98427.72;4413198;32;20153;-79
2023/09/10 02:40:17;;;;;;;15.55;7.15;;;;;;;17.56;77.31;98427.22;4412522;32;20083;-79
2023/09/10 02:42:44;;;;;;;14.27;6.87;;;;;;;17.59;76.17;98434.84;4412529;32;20090;-79
2023/09/10 02:45:12;;;;;;;18.30;7.43;;;;;;;17.66;76.37;98426.62;4398903;32;20102;-79
2023/09/10 02:47:39;;;;;;;13.32;6.62;;;;;;;17.83;74.96;98424.59;4412313;32;20082;-79
2023/09/10 02:50:06;;;;;;;14.02;6.87;;;;;;;17.97;74.36;98426.31;4412409;32;20097;-79
2023/09/10 02:52:33;;;;;;;13.73;6.68;;;;;;;18.01;73.60;98427.78;4412475;32;20161;-79
2023/09/10 02:55:00;;;;;;;13.27;6.75;;;;;;;17.87;74.46;98423.47;4411986;32;20112;-79
2023/09/10 02:57:27;;;;;;;13.50;6.62;;;;;;;17.59;75.40;98431.41;4412607;32;20578;-79
2023/09/10 02:59:54;;;;;;;13.45;6.82;;;;;;;17.83;74.73;98427.22;4412311;32;20482;-79
2023/09/10 03:02:22;;;;;;;15.07;6.95;;;;;;;17.71;75.03;98425.41;4411680;32;20464;-79
2023/09/10 03:04:49;;;;;;;16.27;6.60;;;;;;;18.10;73.40;98423.72;4412235;32;20095;-79
2023/09/10 03:07:16;;;;;;;14.45;6.57;;;;;;;17.96;73.50;98424.63;4411875;32;20078;-79
2023/09/10 03:09:43;;;;;;;13.95;6.62;;;;;;;17.88;74.18;98426.91;4397560;32;20051;-79
2023/09/10 03:12:21;;;;;;;14.05;6.43;;;;;;;17.72;75.32;98429.69;4411683;32;20114;-79
2023/09/10 03:14:49;;;;;;;13.10;6.35;;;;;;;17.83;75.08;98418.53;4411295;32;20117;-79
2023/09/10 03:17:17;;;;;;;13.20;6.15;;;;;;;17.97;74.32;98417.63;4410871;32;20097;-79
2023/09/10 03:19:44;;;;;;;12.65;6.37;;;;;;;18.06;74.52;98417.00;4412042;32;20078;-79
2023/09/10 03:22:11;;;;;;;12.07;6.22;;;;;;;18.01;74.57;98416.50;4411840;32;20101;-79
2023/09/10 03:24:38;;;;;;;14.35;5.90;;;;;;;18.12;73.22;98417.44;4411567;32;20837;-79
2023/09/10 03:27:05;;;;;;;14.77;6.90;;;;;;;18.09;73.33;98414.22;4412105;32;20164;-79
2023/09/10 03:29:33;;;;;;;14.20;6.60;;;;;;;18.02;72.77;98405.09;4411745;32;20130;-79
2023/09/10 03:32:00;;;;;;;11.70;6.15;;;;;;;18.06;72.81;98407.41;4411699;32;20089;-79
2023/09/10 03:34:27;;;;;;;12.52;6.25;;;;;;;17.91;73.95;98409.28;4411639;32;20106;-79
2023/09/10 03:36:54;;;;;;;15.52;6.62;;;;;;;17.89;73.93;98412.94;4411174;32;20106;-79
2023/09/10 03:39:21;;;;;;;13.62;6.68;;;;;;;17.81;73.96;98407.37;4411429;32;20153;-79
2023/09/10 03:41:48;;;;;;;12.63;6.00;;;;;;;17.79;72.30;98414.47;4413037;32;20106;-79
2023/09/10 03:44:15;;;;;;;12.85;6.45;;;;;;;17.35;74.02;98407.75;4412849;32;20110;-79
2023/09/10 03:46:42;;;;;;;13.82;6.55;;;;;;;17.14;74.47;98419.56;4413104;32;20085;-79
2023/09/10 03:49:09;;;;;;;12.80;6.60;;;;;;;17.32;74.52;98421.81;4413231;32;20062;-79
2023/09/10 03:51:38;;;;;;;14.25;7.07;;;;;;;17.26;75.00;98416.16;4411660;32;20106;-79
2023/09/10 03:54:11;;;;;;;15.02;6.70;;;;;;;17.29;75.61;98414.19;4411727;32;20120;-79
2023/09/10 03:56:39;;;;;;;12.50;6.47;;;;;;;17.29;76.18;98422.00;4413091;32;20086;-79
2023/09/10 03:59:07;;;;;;;13.50;6.80;;;;;;;17.29;76.19;98414.19;4399190;32;20090;-79
2023/09/10 04:01:35;;;;;;;15.27;5.95;;;;;;;17.39;76.00;98410.97;4399402;32;20160;-79
2023/09/10 04:04:03;;;;;;;13.62;7.00;;;;;;;17.46;75.46;98410.50;4399661;32;20130;-79
2023/09/10 04:06:30;;;;;;;12.55;6.82;;;;;;;17.46;75.62;98417.50;4412695;32;20115;-79
2023/09/10 04:08:57;;;;;;;13.20;6.68;;;;;;;17.43;76.30;98415.06;4413074;32;20153;-79
2023/09/10 04:11:24;;;;;;;13.48;6.60;;;;;;;17.49;75.57;98414.69;4413064;32;20157;-79
2023/09/10 04:13:51;;;;;;;13.93;6.70;;;;;;;17.33;75.68;98420.03;4412868;32;20153;-79
2023/09/10 04:16:18;;;;;;;14.82;6.65;;;;;;;17.14;77.20;98422.16;4413120;32;20066;-79
2023/09/10 04:18:45;;;;;;;12.77;6.32;;;;;;;17.41;76.79;98409.94;4412542;32;20100;-79
2023/09/10 04:21:13;;;;;;;16.50;6.93;;;;;;;17.60;74.60;98413.03;4413071;32;20116;-79
2023/09/10 04:23:40;;;;;;;14.73;6.75;;;;;;;17.52;74.43;98402.25;4412986;32;20066;-79
2023/09/10 04:26:07;;;;;;;21.48;7.00;;;;;;;17.31;75.33;98414.06;4412896;32;20085;-79
2023/09/10 04:28:34;;;;;;;12.60;6.75;;;;;;;17.41;74.84;98407.34;4413132;32;20097;-79
2023/09/10 04:31:02;;;;;;;13.75;6.85;;;;;;;17.37;74.03;98412.88;4413236;32;20086;-79
2023/09/10 04:33:29;;;;;;;15.35;6.93;;;;;;;17.50;74.07;98416.34;4412847;32;20157;-79
2023/09/10 04:35:57;;;;;;;14.23;6.72;;;;;;;17.42;75.43;98409.00;4412963;32;20098;-79
2023/09/10 04:38:24;;;;;;;13.15;7.00;;;;;;;17.19;76.71;98418.31;4412953;32;20050;-79
2023/09/10 04:40:51;;;;;;;12.60;6.97;;;;;;;17.17;78.15;98416.75;4412736;32;20106;-79
2023/09/10 04:43:18;;;;;;;14.63;7.10;;;;;;;17.62;76.18;98410.31;4413239;32;20400;-79
2023/09/10 04:45:46;;;;;;;14.75;7.53;;;;;;;17.43;77.55;98413.28;4412849;32;20476;-79
2023/09/10 04:48:13;;;;;;;14.48;7.10;;;;;;;17.56;75.89;98414.19;4413043;32;20100;-79
2023/09/10 04:50:40;;;;;;;14.90;6.85;;;;;;;17.30;76.63;98422.84;4413112;32;20152;-79
2023/09/10 04:53:07;;;;;;;12.13;6.43;;;;;;;17.76;74.29;98425.13;4413271;32;20794;-79
2023/09/10 04:55:34;;;;;;;17.00;7.07;;;;;;;17.77;74.64;98425.03;4413620;32;20176;-79
2023/09/10 04:58:02;;;;;;;12.60;6.35;;;;;;;17.60;76.79;98427.84;4414112;32;20679;-79
2023/09/10 05:00:29;;;;;;;12.68;6.50;;;;;;;17.91;75.68;98422.31;4414208;32;20099;-79
2023/09/10 05:02:56;;;;;;;15.98;6.60;;;;;;;18.36;73.52;98430.59;4413509;32;20089;-79
2023/09/10 05:05:23;;;;;;;13.60;6.75;;;;;;;18.33;73.25;98433.44;4414054;32;20831;-79
2023/09/10 05:07:50;;;;;;;17.42;6.70;;;;;;;18.42;73.71;98438.03;4414053;32;20078;-79
2023/09/10 05:10:17;;;;;;;16.77;6.50;;;;;;;18.86;71.85;98431.53;4414105;32;20082;-79
2023/09/10 05:12:44;;;;;;;12.85;6.25;;;;;;;19.32;68.34;98438.69;4414106;32;20094;-79
2023/09/10 05:15:13;;;;;;;13.23;6.20;;;;;;;19.44;68.23;98442.22;4413697;32;20066;-79
2023/09/10 05:17:40;;;;;;;12.40;5.95;;;;;;;20.10;66.00;98446.91;4413911;32;20070;-79
2023/09/10 05:20:08;;;;;;;11.95;5.75;;;;;;;21.03;62.26;98444.13;4413846;32;20105;-79
2023/09/10 05:22:35;;;;;;;14.02;5.53;;;;;;;21.73;60.08;98443.72;4413579;32;20424;-79
2023/09/10 05:25:03;;;;;;;10.48;5.57;;;;;;;22.74;56.81;98446.59;4413440;32;20161;-79
2023/09/10 05:27:32;;;;;;;13.52;5.70;;;;;;;23.58;53.96;98447.13;4400410;32;20058;-79
2023/09/10 05:29:59;;;;;;;10.90;5.28;;;;;;;24.00;51.21;98452.13;4413728;32;20118;-79
2023/09/10 05:32:27;;;;;;;12.98;5.07;;;;;;;24.83;49.10;98447.91;4413773;32;20460;-79
2023/09/10 05:34:55;;;;;;;10.90;5.55;;;;;;;25.47;47.24;98452.31;4413618;32;20094;-79
2023/09/10 05:37:22;;;;;;;11.50;4.97;;;;;;;26.14;46.00;98450.94;4413655;32;20077;-80
2023/09/10 05:39:49;;;;;;;11.40;5.03;;;;;;;26.83;43.96;98448.41;4413687;32;20102;-79
2023/09/10 05:42:16;;;;;;;11.57;4.95;;;;;;;27.77;41.89;98451.72;4413858;32;20075;-80
2023/09/10 05:44:43;;;;;;;12.82;5.10;;;;;;;28.53;39.67;98447.88;4412837;32;20104;-80
2023/09/10 05:47:10;;;;;;;10.05;5.10;;;;;;;28.84;39.21;98447.94;4412924;32;20100;-80
2023/09/10 05:49:37;;;;;;;12.13;5.60;;;;;;;29.57;38.46;98446.81;4413469;32;20090;-80
2023/09/10 05:52:04;;;;;;;11.25;5.37;;;;;;;30.07;37.99;98454.25;4413369;32;20105;-80
2023/09/10 05:54:31;;;;;;;9.77;5.22;;;;;;;30.67;36.86;98456.03;4413656;32;20108;-79
2023/09/10 05:56:58;;;;;;;11.70;5.00;;;;;;;31.17;35.68;98458.94;4414061;32;20564;-80
2023/09/10 05:59:25;;;;;;;9.75;4.87;;;;;;;31.07;36.36;98454.72;4400437;32;20094;-80
2023/09/10 06:01:53;;;;;;;9.70;5.35;;;;;;;31.24;37.07;98454.53;4414745;32;20054;-80
2023/09/10 06:04:20;;;;;;;11.10;5.12;;;;;;;31.77;36.10;98457.78;4412684;32;20107;-80
2023/09/10 06:06:47;;;;;;;11.27;5.45;;;;;;;31.93;35.88;98457.53;4414338;32;20078;-80
2023/09/10 06:09:14;;;;;;;11.98;5.65;;;;;;;32.21;33.94;98457.56;4414511;32;20171;-80
2023/09/10 06:11:41;;;;;;;12.40;5.45;;;;;;;32.89;32.67;98457.88;4414774;32;20150;-80
2023/09/10 06:14:08;;;;;;;11.05;5.28;;;;;;;32.67;32.79;98457.09;4415667;32;20094;-80
2023/09/10 06:16:35;;;;;;;10.95;5.22;;;;;;;32.77;32.67;98454.91;4415509;32;20086;-80
2023/09/10 06:19:03;;;;;;;9.65;5.57;;;;;;;32.42;32.99;98451.38;4414941;32;20113;-80
2023/09/10 06:21:30;;;;;;;10.68;4.93;;;;;;;32.59;32.36;98450.06;4415850;32;20095;-80
2023/09/10 06:23:57;;;;;;;10.55;5.35;;;;;;;32.86;32.23;98459.09;4415878;32;20212;-80
2023/09/10 06:26:24;;;;;;;9.77;5.20;;;;;;;33.06;32.19;98461.84;4415750;32;20125;-80
2023/09/10 06:28:51;;;;;;;10.00;5.15;;;;;;;33.55;32.09;98468.84;4415816;32;20094;-80
2023/09/10 06:31:18;;;;;;;10.68;4.78;;;;;;;33.89;31.24;98465.22;4415629;32;20094;-80
2023/09/10 06:33:50;;;;;;;11.10;5.12;;;;;;;33.50;31.40;98471.31;4415188;32;20068;-80
2023/09/10 06:36:17;;;;;;;10.23;4.97;;;;;;;33.44;31.80;98466.75;4415435;32;20068;-80
2023/09/10 06:38:47;;;;;;;11.35;4.95;;;;;;;33.83;31.48;98472.19;4415062;32;20162;-79
2023/09/10 06:41:15;;;;;;;9.90;4.95;;;;;;;34.18;30.55;98475.53;4414808;32;20054;-80
2023/09/10 06:43:43;;;;;;;10.88;5.45;;;;;;;34.07;30.38;98476.16;4414911;32;20078;-80
2023/09/10 06:46:10;;;;;;;15.70;6.10;;;;;;;33.07;32.13;98479.53;4401013;32;20116;-80
2023/09/10 06:48:37;;;;;;;9.63;5.28;;;;;;;33.13;32.00;98480.59;4415494;32;20138;-80
2023/09/10 06:51:04;;;;;;;9.88;5.00;;;;;;;31.80;33.86;98482.28;4415478;32;20058;-79
2023/09/10 06:53:31;;;;;;;9.68;5.28;;;;;;;32.21;33.76;98477.06;4415561;32;20161;-79
2023/09/10 06:55:58;;;;;;;10.63;5.30;;;;;;;31.52;34.88;98487.47;4415432;32;20083;-80
2023/09/10 06:58:25;;;;;;;9.63;4.70;;;;;;;31.20;35.05;98487.91;4416698;32;20086;-79
2023/09/10 07:00:52;;;;;;;10.57;5.55;;;;;;;30.12;35.93;98483.00;4417312;32;20058;-79
2023/09/10 07:03:19;;;;;;;10.73;5.35;;;;;;;30.30;36.53;98483.47;4418050;32;20104;-79
2023/09/10 07:05:46;;;;;;;11.43;5.40;;;;;;;30.14;36.74;98487.13;4418546;32;20134;-79
2023/09/10 07:08:14;;;;;;;11.68;5.75;;;;;;;30.24;36.33;98479.72;4418402;32;20106;-79
2023/09/10 07:10:41;;;;;;;12.40;5.95;;;;;;;29.92;36.77;98488.75;4405139;32;20079;-79
2023/09/10 07:13:08;;;;;;;11.23;5.47;;;;;;;29.91;36.73;98487.13;4417938;32;20078;-79
2023/09/10 07:15:36;;;;;;;9.77;4.85;;;;;;;30.25;37.06;98491.19;4417141;32;20161;-80
2023/09/10 07:18:04;;;;;;;12.13;6.10;;;;;;;30.53;35.82;98494.09;4417234;32;20718;-80
2023/09/10 07:20:31;;;;;;;13.65;5.60;;;;;;;30.64;35.43;98492.87;4416876;32;20095;-80
2023/09/10 07:22:58;;;;;;;11.23;5.20;;;;;;;29.76;37.59;98490.69;4416254;32;20062;-80
2023/09/10 07:25:25;;;;;;;10.75;5.53;;;;;;;30.31;35.78;98489.66;4416354;32;20063;-79
2023/09/10 07:27:55;;;;;;;10.52;5.62;;;;;;;30.32;36.31;98493.97;4416086;32;20066;-80
2023/09/10 07:30:22;;;;;;;11.20;5.50;;;;;;;30.15;36.25;98495.94;4415863;32;20444;-80
2023/09/10 07:32:49;;;;;;;10.23;5.43;;;;;;;29.90;36.62;98492.63;4415879;32;20106;-79
2023/09/10 07:35:16;;;;;;;12.98;5.25;;;;;;;29.81;37.42;98488.34;4415210;32;20062;-80
2023/09/10 07:37:44;;;;;;;12.32;5.85;;;;;;;30.29;36.94;98487.16;4416615;32;20062;-80
2023/09/10 07:40:11;;;;;;;9.90;5.35;;;;;;;29.81;36.71;98483.87;4416475;32;20098;-80
2023/09/10 07:42:38;;;;;;;12.23;5.95;;;;;;;30.27;36.57;98486.50;4416415;32;20073;-80
2023/09/10 07:45:11;;;;;;;10.65;5.43;;;;;;;30.23;36.52;98478.06;4402522;32;20093;-80
2023/09/10 07:47:38;;;;;;;11.00;5.53;;;;;;;30.48;36.08;98489.31;4416601;32;20102;-80
2023/09/10 07:50:06;;;;;;;11.48;5.40;;;;;;;30.79;35.82;98494.50;4416531;32;20054;-80
2023/09/10 07:52:33;;;;;;;10.00;5.28;;;;;;;31.80;34.02;98487.59;4416173;32;20100;-80
2023/09/10 07:55:00;;;;;;;11.07;5.43;;;;;;;31.76;34.15;98483.66;4414321;32;20112;-80
2023/09/10 07:57:27;;;;;;;10.57;5.45;;;;;;;30.80;35.70;98479.34;4414809;32;20432;-80
2023/09/10 07:59:54;;;;;;;10.90;5.30;;;;;;;30.71;35.77;98475.13;4415118;32;20149;-80
2023/09/10 08:02:22;;;;;;;15.38;5.65;;;;;;;30.81;35.61;98470.34;4414845;32;20145;-80
2023/09/10 08:04:51;;;;;;;9.95;5.30;;;;;;;31.95;33.57;98474.19;4414684;32;20073;-80
2023/09/10 08:07:18;;;;;;;9.40;4.80;;;;;;;33.08;32.71;98479.34;4413872;32;20081;-80
2023/09/10 08:09:44;;;;;;;13.62;4.97;;;;;;;33.29;31.73;98475.72;4414299;32;20158;-80
2023/09/10 08:12:12;;;;;;;8.60;4.80;;;;;;;33.67;31.57;98484.09;4413186;32;20094;-80
2023/09/10 08:14:40;;;;;;;12.88;4.95;;;;;;;33.32;30.10;98472.66;4414531;32;20078;-80
2023/09/10 08:17:07;;;;;;;9.50;5.00;;;;;;;33.82;29.24;98475.06;4414610;32;20188;-80
2023/09/10 08:19:34;;;;;;;10.88;5.18;;;;;;;34.28;29.45;98472.44;4411732;32;20171;-80
2023/09/10 08:22:01;;;;;;;10.60;4.72;;;;;;;33.56;29.95;98475.84;4412775;32;20168;-80
2023/09/10 08:24:28;;;;;;;10.65;4.97;;;;;;;34.43;28.82;98470.38;4412124;32;20118;-80
2023/09/10 08:26:55;;;;;;;8.30;4.60;;;;;;;33.53;29.65;98471.72;4412835;32;20105;-80
2023/09/10 08:29:22;;;;;;;11.12;4.87;;;;;;;34.08;28.99;98474.28;4412938;32;20110;-80
2023/09/10 08:31:49;;;;;;;9.60;4.68;;;;;;;33.92;29.46;98467.47;4413328;32;20144;-80
2023/09/10 08:34:16;;;;;;;8.88;4.57;;;;;;;34.85;27.56;98480.81;4413487;32;20054;-80
2023/09/10 08:36:43;;;;;;;12.02;4.85;;;;;;;34.82;28.21;98481.25;4413186;32;20102;-80
2023/09/10 08:39:10;;;;;;;10.57;5.00;;;;;;;33.74;29.80;98468.06;4412753;32;20158;-80
2023/09/10 08:41:43;;;;;;;12.00;5.10;;;;;;;33.31;30.31;98475.53;4413476;32;20142;-80
2023/09/10 08:44:11;;;;;;;9.85;4.70;;;;;;;33.61;30.12;98478.75;4399732;32;20101;-81
2023/09/10 08:46:40;;;;;;;8.60;4.60;;;;;;;34.00;29.82;98479.84;4399592;32;20783;-80
2023/09/10 08:49:08;;;;;;;11.27;4.85;;;;;;;34.07;28.97;98470.78;4413811;32;20156;-80
2023/09/10 08:51:35;;;;;;;10.02;4.70;;;;;;;33.52;29.67;98469.25;4399853;32;20105;-80
2023/09/10 08:54:02;;;;;;;10.88;4.78;;;;;;;33.63;31.20;98460.63;4412500;32;20143;-80
2023/09/10 08:56:30;;;;;;;9.13;4.85;;;;;;;33.90;29.44;98461.50;4413611;32;20129;-81
2023/09/10 08:58:57;;;;;;;9.70;4.40;;;;;;;33.24;31.05;98472.81;4414119;32;20157;-80
2023/09/10 09:01:24;;;;;;;9.80;4.85;;;;;;;33.88;29.40;98460.87;4398677;32;20097;-80
2023/09/10 09:03:52;;;;;;;12.27;4.68;;;;;;;34.01;28.96;98465.44;4399982;32;20051;-80
2023/09/10 09:06:19;;;;;;;12.88;5.05;;;;;;;34.58;28.69;98464.00;4413216;32;20152;-80
2023/09/10 09:08:51;;;;;;;9.00;4.80;;;;;;;33.90;30.87;98466.84;4411816;32;20106;-81
2023/09/10 09:11:24;;;;;;;10.65;5.15;;;;;;;33.31;30.43;98471.00;4398577;32;20462;-80
2023/09/10 09:13:52;;;;;;;10.25;4.40;;;;;;;34.35;29.29;98467.06;4396577;32;20082;-80
2023/09/10 09:16:20;;;;;;;11.05;4.65;;;;;;;34.64;28.71;98468.50;4410621;32;20118;-80
2023/09/10 09:18:48;;;;;;;13.15;4.97;;;;;;;34.05;28.97;98464.81;4410470;32;20090;-79
2023/09/10 09:21:18;;;;;;;9.15;5.00;;;;;;;33.40;29.02;98463.66;4397363;32;20094;-80
2023/09/10 09:23:51;;;;;;;8.90;4.78;;;;;;;32.65;31.59;98464.50;4385027;32;20108;-80
2023/09/10 09:26:19;;;;;;;9.80;4.90;;;;;;;32.94;30.06;98456.22;4397863;32;20120;-80
2023/09/10 09:28:46;;;;;;;10.60;4.80;;;;;;;33.22;29.92;98458.00;4411317;32;20063;-80
2023/09/10 09:31:13;;;;;;;9.70;4.32;;;;;;;34.14;28.76;98452.88;4412071;32;20082;-80
2023/09/10 09:33:40;;;;;;;12.00;4.97;;;;;;;33.51;28.27;98460.41;4411125;32;20090;-80
2023/09/10 09:36:09;;;;;;;8.95;4.68;;;;;;;33.87;28.70;98454.72;4411725;32;20142;-81
2023/09/10 09:38:42;;;;;;;10.77;4.55;;;;;;;34.63;28.12;98453.47;4411998;32;20108;-80
2023/09/10 09:41:09;;;;;;;9.90;5.12;;;;;;;34.11;28.24;98455.94;4412902;32;20094;-80
2023/09/10 09:43:36;;;;;;;14.25;5.07;;;;;;;34.13;27.74;98456.56;4398664;32;20156;-80
2023/09/10 09:46:03;;;;;;;8.40;4.72;;;;;;;33.80;28.87;98453.03;4412602;32;20151;-80
2023/09/10 09:48:31;;;;;;;10.43;4.82;;;;;;;33.42;28.81;98452.75;4412655;32;20086;-80
2023/09/10 09:50:58;;;;;;;9.48;4.60;;;;;;;34.15;27.90;98446.50;4400123;32;20125;-80
2023/09/10 09:53:26;;;;;;;9.57;4.80;;;;;;;34.86;26.23;98444.94;4399613;32;20681;-80
2023/09/10 09:55:55;;;;;;;9.80;4.78;;;;;;;34.58;26.93;98453.28;4399926;32;20067;-80
2023/09/10 09:58:22;;;;;;;11.80;4.82;;;;;;;34.62;27.51;98447.28;4413851;32;20148;-80
2023/09/10 10:00:49;;;;;;;11.05;4.75;;;;;;;34.83;26.38;98446.19;4414148;32;20784;-81
2023/09/10 10:03:18;;;;;;;9.95;4.57;;;;;;;35.45;26.31;98443.91;4413253;32;20090;-80
2023/09/10 10:05:52;;;;;;;12.55;4.82;;;;;;;34.85;26.17;98445.97;4400868;32;20102;-80
2023/09/10 10:08:26;;;;;;;11.82;4.45;;;;;;;35.42;25.55;98444.38;4400094;32;20118;-81
2023/09/10 10:10:53;;;;;;;9.88;4.97;;;;;;;35.23;25.25;98438.84;4400130;32;20495;-81
2023/09/10 10:13:23;;;;;;;9.82;4.85;;;;;;;35.56;25.00;98437.87;4413192;32;20074;-81
2023/09/10 10:15:52;;;;;;;10.38;4.53;;;;;;;35.46;25.36;98437.50;4400124;32;20450;-81
2023/09/10 10:18:21;;;;;;;12.70;4.80;;;;;;;36.36;24.12;98436.22;4414025;32;20073;-81
2023/09/10 10:20:49;;;;;;;10.85;4.55;;;;;;;35.76;24.67;98441.25;4413032;32;20172;-81
2023/09/10 10:23:20;;;;;;;9.05;4.53;;;;;;;36.30;23.63;98434.41;4418974;32;20073;-80
2023/09/10 10:26:09;;;;;;;8.68;4.75;;;;;;;36.04;24.21;98435.47;4411981;32;20066;-81
2023/09/10 10:28:37;;;;;;;11.88;4.62;;;;;;;35.96;24.83;98432.25;4415435;32;20094;-81
2023/09/10 10:31:10;;;;;;;9.45;4.28;;;;;;;36.15;24.77;98434.75;4398333;32;20449;-81
2023/09/10 10:33:48;;;;;;;11.38;4.60;;;;;;;35.44;24.40;98428.88;4413394;32;20055;-81
2023/09/10 10:36:19;;;;;;;8.90;4.57;;;;;;;36.43;23.40;98428.12;4399925;32;20097;-81
2023/09/10 10:38:46;;;;;;;14.20;4.65;;;;;;;36.34;23.46;98426.72;4414598;32;20519;-81
2023/09/10 10:41:17;;;;;;;10.55;4.60;;;;;;;35.91;24.08;98420.28;4400825;32;20148;-81
2023/09/10 10:43:51;;;;;;;9.00;4.47;;;;;;;36.07;24.14;98410.88;4413490;32;20110;-81
2023/09/10 10:46:19;;;;;;;10.45;4.50;;;;;;;36.64;23.35;98422.31;4413122;32;20110;-81
2023/09/10 10:48:46;;;;;;;10.15;4.82;;;;;;;36.39;23.09;98416.19;4413757;32;20098;-81
2023/09/10 10:51:16;;;;;;;8.07;4.22;;;;;;;36.68;22.91;98422.69;4414049;32;20077;-81
2023/09/10 10:53:43;;;;;;;10.05;4.65;;;;;;;36.05;23.83;98414.81;4400218;32;20151;-81
2023/09/10 10:56:11;;;;;;;10.18;4.32;;;;;;;36.41;24.28;98414.09;4414015;32;20062;-81
2023/09/10 10:58:41;;;;;;;12.68;4.90;;;;;;;36.41;23.82;98408.72;4399935;32;20054;-81
2023/09/10 11:01:11;;;;;;;7.87;3.97;;;;;;;36.81;23.84;98413.66;4399649;32;20086;-81
2023/09/10 11:03:38;;;;;;;9.40;4.20;;;;;;;37.04;22.44;98411.94;4400157;32;20078;-82
2023/09/10 11:06:07;;;;;;;7.85;4.07;;;;;;;37.19;22.47;98406.16;4399290;32;20481;-81
2023/09/10 11:08:36;;;;;;;8.38;4.35;;;;;;;37.21;22.29;98413.97;4399838;32;20102;-81
2023/09/10 11:11:34;;;;;;;11.27;4.65;;;;;;;36.40;23.16;98407.91;4414191;32;20073;-81
2023/09/10 11:14:05;;;;;;;9.02;4.20;;;;;;;35.88;23.69;98393.87;4411730;32;20125;-80
2023/09/10 11:16:32;;;;;;;10.23;4.32;;;;;;;35.14;24.85;98394.53;4414724;32;20393;-80
2023/09/10 11:19:00;;;;;;;10.68;4.47;;;;;;;35.04;25.67;98397.69;4412755;32;20400;-80
2023/09/10 11:21:56;;;;;;;12.27;4.45;;;;;;;35.15;25.45;98403.41;4398963;32;20165;-81
2023/09/10 11:24:24;;;;;;;10.70;4.30;;;;;;;35.64;23.92;98398.19;4412597;32;20157;-80
2023/09/10 11:27:18;;;;;;;14.50;5.00;;;;;;;35.24;25.29;98399.44;4412586;32;20167;-81
2023/09/10 11:29:45;;;;;;;8.80;4.60;;;;;;;35.39;25.25;98391.94;4413276;32;20116;-80
2023/09/10 11:32:18;;;;;;;11.32;4.62;;;;;;;35.48;23.94;98387.13;4399172;32;20797;-80